sensor_id;sensor_type;location;lat;lon;timestamp;P1;durP1;ratioP1;P2;durP2;ratioP2
52033;SDS011;38045;52.988;6.536;2023-10-19T00:00:39;24.85;;;18.65;;
52033;SDS011;38045;52.988;6.536;2023-10-19T00:03:10;22.95;;;18.33;;
52033;SDS011;38045;52.988;6.536;2023-10-19T00:05:36;22.30;;;18.45;;
52033;SDS011;38045;52.988;6.536;2023-10-19T00:08:02;21.52;;;17.20;;
52033;SDS011;38045;52.988;6.536;2023-10-19T00:10:48;24.80;;;18.63;;
52033;SDS011;38045;52.988;6.536;2023-10-19T00:13:35;24.23;;;19.20;;
52033;SDS011;38045;52.988;6.536;2023-10-19T00:16:03;22.17;;;19.80;;
52033;SDS011;38045;52.988;6.536;2023-10-19T00:18:37;24.95;;;17.10;;
52033;SDS011;38045;52.988;6.536;2023-10-19T00:21:07;22.25;;;17.58;;
52033;SDS011;38045;52.988;6.536;2023-10-19T00:23:45;25.80;;;20.02;;
52033;SDS011;38045;52.988;6.536;2023-10-19T00:26:13;25.05;;;20.17;;
52033;SDS011;38045;52.988;6.536;2023-10-19T00:28:45;29.67;;;21.98;;
52033;SDS011;38045;52.988;6.536;2023-10-19T00:33:40;26.67;;;20.25;;
52033;SDS011;38045;52.988;6.536;2023-10-19T00:36:09;26.48;;;19.20;;
52033;SDS011;38045;52.988;6.536;2023-10-19T00:38:38;21.95;;;19.58;;
52033;SDS011;38045;52.988;6.536;2023-10-19T00:41:07;25.48;;;19.48;;
52033;SDS011;38045;52.988;6.536;2023-10-19T00:43:40;23.35;;;19.80;;
52033;SDS011;38045;52.988;6.536;2023-10-19T00:46:10;24.90;;;21.02;;
52033;SDS011;38045;52.988;6.536;2023-10-19T00:48:57;25.42;;;22.20;;
52033;SDS011;38045;52.988;6.536;2023-10-19T00:51:43;21.02;;;16.00;;
52033;SDS011;38045;52.988;6.536;2023-10-19T00:54:16;24.70;;;19.05;;
52033;SDS011;38045;52.988;6.536;2023-10-19T00:56:51;25.33;;;22.60;;
52033;SDS011;38045;52.988;6.536;2023-10-19T00:59:21;29.13;;;22.42;;
52033;SDS011;38045;52.988;6.536;2023-10-19T01:01:52;26.20;;;22.35;;
52033;SDS011;38045;52.988;6.536;2023-10-19T01:04:19;29.08;;;23.17;;
52033;SDS011;38045;52.988;6.536;2023-10-19T01:06:47;27.90;;;21.42;;
52033;SDS011;38045;52.988;6.536;2023-10-19T01:09:29;27.35;;;20.80;;
52033;SDS011;38045;52.988;6.536;2023-10-19T01:12:00;29.25;;;22.52;;
52033;SDS011;38045;52.988;6.536;2023-10-19T01:14:31;26.15;;;19.60;;
52033;SDS011;38045;52.988;6.536;2023-10-19T01:16:57;24.95;;;20.13;;
52033;SDS011;38045;52.988;6.536;2023-10-19T01:19:23;29.73;;;24.73;;
52033;SDS011;38045;52.988;6.536;2023-10-19T01:21:52;24.17;;;21.03;;
52033;SDS011;38045;52.988;6.536;2023-10-19T01:24:24;29.83;;;23.45;;
52033;SDS011;38045;52.988;6.536;2023-10-19T01:27:07;21.55;;;19.27;;
52033;SDS011;38045;52.988;6.536;2023-10-19T01:29:34;26.85;;;21.58;;
52033;SDS011;38045;52.988;6.536;2023-10-19T01:32:02;27.92;;;22.27;;
52033;SDS011;38045;52.988;6.536;2023-10-19T01:34:33;24.17;;;21.10;;
52033;SDS011;38045;52.988;6.536;2023-10-19T01:37:00;25.77;;;19.60;;
52033;SDS011;38045;52.988;6.536;2023-10-19T01:39:32;27.58;;;23.45;;
52033;SDS011;38045;52.988;6.536;2023-10-19T01:42:02;28.75;;;21.50;;
52033;SDS011;38045;52.988;6.536;2023-10-19T01:44:33;28.48;;;21.90;;
52033;SDS011;38045;52.988;6.536;2023-10-19T01:47:01;21.52;;;19.05;;
52033;SDS011;38045;52.988;6.536;2023-10-19T01:49:26;24.10;;;19.88;;
52033;SDS011;38045;52.988;6.536;2023-10-19T01:51:55;26.90;;;22.00;;
52033;SDS011;38045;52.988;6.536;2023-10-19T01:54:22;25.63;;;21.50;;
52033;SDS011;38045;52.988;6.536;2023-10-19T01:56:50;24.75;;;20.85;;
52033;SDS011;38045;52.988;6.536;2023-10-19T01:59:24;33.00;;;25.20;;
52033;SDS011;38045;52.988;6.536;2023-10-19T02:01:53;26.40;;;20.98;;
52033;SDS011;38045;52.988;6.536;2023-10-19T02:04:20;21.38;;;17.58;;
52033;SDS011;38045;52.988;6.536;2023-10-19T02:06:47;29.20;;;21.92;;
52033;SDS011;38045;52.988;6.536;2023-10-19T02:09:13;22.35;;;17.80;;
52033;SDS011;38045;52.988;6.536;2023-10-19T02:11:54;19.33;;;15.77;;
52033;SDS011;38045;52.988;6.536;2023-10-19T02:14:22;20.75;;;18.50;;
52033;SDS011;38045;52.988;6.536;2023-10-19T02:16:53;24.23;;;20.10;;
52033;SDS011;38045;52.988;6.536;2023-10-19T02:19:24;23.90;;;20.58;;
52033;SDS011;38045;52.988;6.536;2023-10-19T02:21:51;19.52;;;17.00;;
52033;SDS011;38045;52.988;6.536;2023-10-19T02:24:21;19.15;;;15.75;;
52033;SDS011;38045;52.988;6.536;2023-10-19T02:26:48;16.27;;;14.13;;
52033;SDS011;38045;52.988;6.536;2023-10-19T02:29:16;16.85;;;14.98;;
52033;SDS011;38045;52.988;6.536;2023-10-19T02:31:43;15.80;;;14.13;;
52033;SDS011;38045;52.988;6.536;2023-10-19T02:34:12;15.95;;;13.88;;
52033;SDS011;38045;52.988;6.536;2023-10-19T02:36:40;16.95;;;15.25;;
52033;SDS011;38045;52.988;6.536;2023-10-19T02:39:11;16.63;;;14.75;;
52033;SDS011;38045;52.988;6.536;2023-10-19T02:41:40;15.05;;;13.45;;
52033;SDS011;38045;52.988;6.536;2023-10-19T02:44:13;16.90;;;14.23;;
52033;SDS011;38045;52.988;6.536;2023-10-19T02:46:53;16.63;;;14.48;;
52033;SDS011;38045;52.988;6.536;2023-10-19T02:49:30;18.25;;;14.35;;
52033;SDS011;38045;52.988;6.536;2023-10-19T02:51:56;16.40;;;14.05;;
52033;SDS011;38045;52.988;6.536;2023-10-19T02:54:28;15.15;;;13.23;;
52033;SDS011;38045;52.988;6.536;2023-10-19T02:56:57;17.05;;;15.23;;
52033;SDS011;38045;52.988;6.536;2023-10-19T02:59:24;16.88;;;13.95;;
52033;SDS011;38045;52.988;6.536;2023-10-19T03:01:57;15.77;;;14.13;;
52033;SDS011;38045;52.988;6.536;2023-10-19T03:04:39;16.80;;;15.10;;
52033;SDS011;38045;52.988;6.536;2023-10-19T03:07:06;13.20;;;11.60;;
52033;SDS011;38045;52.988;6.536;2023-10-19T03:09:32;13.02;;;10.80;;
52033;SDS011;38045;52.988;6.536;2023-10-19T03:12:01;17.77;;;14.07;;
52033;SDS011;38045;52.988;6.536;2023-10-19T03:14:29;13.05;;;11.77;;
52033;SDS011;38045;52.988;6.536;2023-10-19T03:16:56;16.95;;;14.63;;
52033;SDS011;38045;52.988;6.536;2023-10-19T03:19:23;13.88;;;12.23;;
52033;SDS011;38045;52.988;6.536;2023-10-19T03:21:52;12.45;;;10.30;;
52033;SDS011;38045;52.988;6.536;2023-10-19T03:24:20;11.30;;;9.95;;
52033;SDS011;38045;52.988;6.536;2023-10-19T03:26:59;13.73;;;12.30;;
52033;SDS011;38045;52.988;6.536;2023-10-19T03:29:25;14.45;;;13.05;;
52033;SDS011;38045;52.988;6.536;2023-10-19T03:31:57;13.52;;;11.52;;
52033;SDS011;38045;52.988;6.536;2023-10-19T03:34:24;10.98;;;9.73;;
52033;SDS011;38045;52.988;6.536;2023-10-19T03:36:49;12.55;;;11.25;;
52033;SDS011;38045;52.988;6.536;2023-10-19T03:39:19;11.10;;;10.10;;
52033;SDS011;38045;52.988;6.536;2023-10-19T03:41:46;14.13;;;12.77;;
52033;SDS011;38045;52.988;6.536;2023-10-19T03:44:12;14.35;;;11.40;;
52033;SDS011;38045;52.988;6.536;2023-10-19T03:46:49;14.68;;;13.18;;
52033;SDS011;38045;52.988;6.536;2023-10-19T03:49:19;16.45;;;12.55;;
52033;SDS011;38045;52.988;6.536;2023-10-19T03:51:45;13.90;;;12.40;;
52033;SDS011;38045;52.988;6.536;2023-10-19T03:54:27;15.38;;;13.68;;
52033;SDS011;38045;52.988;6.536;2023-10-19T03:56:54;11.02;;;9.00;;
52033;SDS011;38045;52.988;6.536;2023-10-19T03:59:26;16.50;;;14.75;;
52033;SDS011;38045;52.988;6.536;2023-10-19T04:01:56;13.88;;;12.35;;
52033;SDS011;38045;52.988;6.536;2023-10-19T04:04:24;13.07;;;11.73;;
52033;SDS011;38045;52.988;6.536;2023-10-19T04:06:50;12.55;;;11.27;;
52033;SDS011;38045;52.988;6.536;2023-10-19T04:09:22;12.77;;;11.48;;
52033;SDS011;38045;52.988;6.536;2023-10-19T04:11:53;12.57;;;11.38;;
52033;SDS011;38045;52.988;6.536;2023-10-19T04:14:21;12.90;;;10.88;;
52033;SDS011;38045;52.988;6.536;2023-10-19T04:16:46;12.43;;;11.23;;
52033;SDS011;38045;52.988;6.536;2023-10-19T04:19:14;11.63;;;10.38;;
52033;SDS011;38045;52.988;6.536;2023-10-19T04:21:40;12.50;;;11.27;;
52033;SDS011;38045;52.988;6.536;2023-10-19T04:24:11;12.82;;;11.27;;
52033;SDS011;38045;52.988;6.536;2023-10-19T04:26:37;10.30;;;9.02;;
52033;SDS011;38045;52.988;6.536;2023-10-19T04:29:03;12.63;;;11.35;;
52033;SDS011;38045;52.988;6.536;2023-10-19T04:31:36;10.25;;;9.18;;
52033;SDS011;38045;52.988;6.536;2023-10-19T04:34:06;10.45;;;9.38;;
52033;SDS011;38045;52.988;6.536;2023-10-19T04:36:35;9.88;;;8.88;;
52033;SDS011;38045;52.988;6.536;2023-10-19T04:39:00;11.00;;;9.95;;
52033;SDS011;38045;52.988;6.536;2023-10-19T04:41:27;11.57;;;10.50;;
52033;SDS011;38045;52.988;6.536;2023-10-19T04:43:53;10.95;;;9.82;;
52033;SDS011;38045;52.988;6.536;2023-10-19T04:46:19;11.15;;;10.02;;
52033;SDS011;38045;52.988;6.536;2023-10-19T04:48:45;10.48;;;9.27;;
52033;SDS011;38045;52.988;6.536;2023-10-19T04:51:11;10.63;;;9.38;;
52033;SDS011;38045;52.988;6.536;2023-10-19T04:53:37;11.75;;;10.65;;
52033;SDS011;38045;52.988;6.536;2023-10-19T04:56:03;11.82;;;10.63;;
52033;SDS011;38045;52.988;6.536;2023-10-19T04:58:33;11.13;;;10.05;;
52033;SDS011;38045;52.988;6.536;2023-10-19T05:01:00;10.38;;;9.35;;
52033;SDS011;38045;52.988;6.536;2023-10-19T05:03:28;10.48;;;9.43;;
52033;SDS011;38045;52.988;6.536;2023-10-19T05:05:54;13.60;;;10.05;;
52033;SDS011;38045;52.988;6.536;2023-10-19T05:08:21;9.90;;;8.85;;
52033;SDS011;38045;52.988;6.536;2023-10-19T05:10:50;10.30;;;9.30;;
52033;SDS011;38045;52.988;6.536;2023-10-19T05:13:17;10.07;;;9.18;;
52033;SDS011;38045;52.988;6.536;2023-10-19T05:15:44;8.05;;;7.25;;
52033;SDS011;38045;52.988;6.536;2023-10-19T05:18:09;11.63;;;10.52;;
52033;SDS011;38045;52.988;6.536;2023-10-19T05:20:35;12.02;;;10.73;;
52033;SDS011;38045;52.988;6.536;2023-10-19T05:23:05;10.73;;;9.60;;
52033;SDS011;38045;52.988;6.536;2023-10-19T05:25:35;11.23;;;10.13;;
52033;SDS011;38045;52.988;6.536;2023-10-19T05:28:06;11.38;;;9.55;;
52033;SDS011;38045;52.988;6.536;2023-10-19T05:30:33;9.73;;;8.82;;
52033;SDS011;38045;52.988;6.536;2023-10-19T05:33:00;9.32;;;8.48;;
52033;SDS011;38045;52.988;6.536;2023-10-19T05:35:31;9.80;;;8.88;;
52033;SDS011;38045;52.988;6.536;2023-10-19T05:38:00;9.07;;;8.13;;
52033;SDS011;38045;52.988;6.536;2023-10-19T05:40:26;11.15;;;10.05;;
52033;SDS011;38045;52.988;6.536;2023-10-19T05:42:57;10.93;;;9.83;;
52033;SDS011;38045;52.988;6.536;2023-10-19T05:45:23;11.23;;;10.10;;
52033;SDS011;38045;52.988;6.536;2023-10-19T05:47:50;12.15;;;10.93;;
52033;SDS011;38045;52.988;6.536;2023-10-19T05:50:15;10.13;;;9.23;;
52033;SDS011;38045;52.988;6.536;2023-10-19T05:52:41;10.02;;;9.13;;
52033;SDS011;38045;52.988;6.536;2023-10-19T05:55:08;9.45;;;8.55;;
52033;SDS011;38045;52.988;6.536;2023-10-19T05:57:36;10.52;;;9.43;;
52033;SDS011;38045;52.988;6.536;2023-10-19T06:00:05;9.73;;;8.77;;
52033;SDS011;38045;52.988;6.536;2023-10-19T06:02:38;10.07;;;8.48;;
52033;SDS011;38045;52.988;6.536;2023-10-19T06:05:16;10.38;;;9.00;;
52033;SDS011;38045;52.988;6.536;2023-10-19T06:07:46;11.05;;;9.98;;
52033;SDS011;38045;52.988;6.536;2023-10-19T06:10:13;8.82;;;7.95;;
52033;SDS011;38045;52.988;6.536;2023-10-19T06:12:52;9.63;;;8.63;;
52033;SDS011;38045;52.988;6.536;2023-10-19T06:15:19;9.55;;;8.65;;
52033;SDS011;38045;52.988;6.536;2023-10-19T06:17:47;7.72;;;6.93;;
52033;SDS011;38045;52.988;6.536;2023-10-19T06:20:14;8.05;;;7.20;;
52033;SDS011;38045;52.988;6.536;2023-10-19T06:22:58;8.23;;;7.38;;
52033;SDS011;38045;52.988;6.536;2023-10-19T06:25:30;7.75;;;6.97;;
52033;SDS011;38045;52.988;6.536;2023-10-19T06:27:57;7.65;;;6.97;;
52033;SDS011;38045;52.988;6.536;2023-10-19T06:30:25;7.53;;;6.82;;
52033;SDS011;38045;52.988;6.536;2023-10-19T06:32:52;7.35;;;6.65;;
52033;SDS011;38045;52.988;6.536;2023-10-19T06:35:20;7.18;;;6.60;;
52033;SDS011;38045;52.988;6.536;2023-10-19T06:37:47;8.27;;;7.40;;
52033;SDS011;38045;52.988;6.536;2023-10-19T06:40:13;7.60;;;6.95;;
52033;SDS011;38045;52.988;6.536;2023-10-19T06:42:41;7.47;;;6.57;;
52033;SDS011;38045;52.988;6.536;2023-10-19T06:45:08;7.40;;;6.72;;
52033;SDS011;38045;52.988;6.536;2023-10-19T06:47:37;8.15;;;7.45;;
52033;SDS011;38045;52.988;6.536;2023-10-19T06:50:04;6.78;;;6.18;;
52033;SDS011;38045;52.988;6.536;2023-10-19T06:52:34;6.75;;;6.15;;
52033;SDS011;38045;52.988;6.536;2023-10-19T06:55:01;7.15;;;6.55;;
52033;SDS011;38045;52.988;6.536;2023-10-19T06:57:28;7.65;;;6.95;;
52033;SDS011;38045;52.988;6.536;2023-10-19T06:59:54;5.90;;;5.32;;
52033;SDS011;38045;52.988;6.536;2023-10-19T07:02:20;7.45;;;6.75;;
52033;SDS011;38045;52.988;6.536;2023-10-19T07:04:45;6.80;;;6.20;;
52033;SDS011;38045;52.988;6.536;2023-10-19T07:07:12;7.10;;;6.50;;
52033;SDS011;38045;52.988;6.536;2023-10-19T07:09:39;7.60;;;6.90;;
52033;SDS011;38045;52.988;6.536;2023-10-19T07:12:04;7.70;;;6.95;;
52033;SDS011;38045;52.988;6.536;2023-10-19T07:14:33;7.23;;;6.53;;
52033;SDS011;38045;52.988;6.536;2023-10-19T07:16:59;5.93;;;5.40;;
52033;SDS011;38045;52.988;6.536;2023-10-19T07:19:24;7.57;;;5.18;;
52033;SDS011;38045;52.988;6.536;2023-10-19T07:21:50;6.35;;;5.75;;
52033;SDS011;38045;52.988;6.536;2023-10-19T07:24:22;6.25;;;5.75;;
52033;SDS011;38045;52.988;6.536;2023-10-19T07:26:50;4.80;;;4.40;;
52033;SDS011;38045;52.988;6.536;2023-10-19T07:29:27;5.43;;;4.97;;
52033;SDS011;38045;52.988;6.536;2023-10-19T07:31:53;6.47;;;5.88;;
52033;SDS011;38045;52.988;6.536;2023-10-19T07:34:20;5.90;;;5.40;;
52033;SDS011;38045;52.988;6.536;2023-10-19T07:36:50;5.38;;;4.88;;
52033;SDS011;38045;52.988;6.536;2023-10-19T07:39:19;6.63;;;6.03;;
52033;SDS011;38045;52.988;6.536;2023-10-19T07:41:45;5.70;;;5.20;;
52033;SDS011;38045;52.988;6.536;2023-10-19T07:44:11;6.15;;;5.65;;
52033;SDS011;38045;52.988;6.536;2023-10-19T07:46:37;6.45;;;5.93;;
52033;SDS011;38045;52.988;6.536;2023-10-19T07:49:03;5.57;;;5.18;;
52033;SDS011;38045;52.988;6.536;2023-10-19T07:51:29;5.90;;;5.40;;
52033;SDS011;38045;52.988;6.536;2023-10-19T07:53:55;5.85;;;5.28;;
52033;SDS011;38045;52.988;6.536;2023-10-19T07:56:22;5.13;;;4.68;;
52033;SDS011;38045;52.988;6.536;2023-10-19T07:58:48;7.18;;;5.90;;
52033;SDS011;38045;52.988;6.536;2023-10-19T08:01:14;5.78;;;5.25;;
52033;SDS011;38045;52.988;6.536;2023-10-19T08:03:40;6.45;;;5.85;;
52033;SDS011;38045;52.988;6.536;2023-10-19T08:06:06;6.75;;;6.13;;
52033;SDS011;38045;52.988;6.536;2023-10-19T08:08:31;7.13;;;6.43;;
52033;SDS011;38045;52.988;6.536;2023-10-19T08:11:00;6.40;;;5.80;;
52033;SDS011;38045;52.988;6.536;2023-10-19T08:13:26;6.30;;;5.70;;
52033;SDS011;38045;52.988;6.536;2023-10-19T08:15:52;6.13;;;5.53;;
52033;SDS011;38045;52.988;6.536;2023-10-19T08:18:18;7.15;;;6.55;;
52033;SDS011;38045;52.988;6.536;2023-10-19T08:20:44;6.20;;;5.70;;
52033;SDS011;38045;52.988;6.536;2023-10-19T08:23:10;7.20;;;6.50;;
52033;SDS011;38045;52.988;6.536;2023-10-19T08:25:38;8.90;;;7.15;;
52033;SDS011;38045;52.988;6.536;2023-10-19T08:28:04;8.60;;;7.68;;
52033;SDS011;38045;52.988;6.536;2023-10-19T08:30:31;8.00;;;7.28;;
52033;SDS011;38045;52.988;6.536;2023-10-19T08:32:59;8.52;;;7.75;;
52033;SDS011;38045;52.988;6.536;2023-10-19T08:35:25;8.02;;;7.20;;
52033;SDS011;38045;52.988;6.536;2023-10-19T08:37:55;8.40;;;7.00;;
52033;SDS011;38045;52.988;6.536;2023-10-19T08:40:22;8.45;;;7.68;;
52033;SDS011;38045;52.988;6.536;2023-10-19T08:42:51;10.05;;;8.10;;
52033;SDS011;38045;52.988;6.536;2023-10-19T08:45:18;8.50;;;7.32;;
52033;SDS011;38045;52.988;6.536;2023-10-19T08:47:53;9.45;;;8.43;;
52033;SDS011;38045;52.988;6.536;2023-10-19T08:50:41;10.07;;;9.05;;
52033;SDS011;38045;52.988;6.536;2023-10-19T08:53:07;11.10;;;9.90;;
52033;SDS011;38045;52.988;6.536;2023-10-19T08:55:33;9.43;;;8.48;;
52033;SDS011;38045;52.988;6.536;2023-10-19T08:57:59;9.57;;;8.32;;
52033;SDS011;38045;52.988;6.536;2023-10-19T09:00:25;9.90;;;8.50;;
52033;SDS011;38045;52.988;6.536;2023-10-19T09:02:54;11.48;;;9.27;;
52033;SDS011;38045;52.988;6.536;2023-10-19T09:05:21;13.10;;;9.43;;
52033;SDS011;38045;52.988;6.536;2023-10-19T09:07:48;9.50;;;8.50;;
52033;SDS011;38045;52.988;6.536;2023-10-19T09:10:23;11.85;;;10.65;;
52033;SDS011;38045;52.988;6.536;2023-10-19T09:15:31;10.98;;;9.88;;
52033;SDS011;38045;52.988;6.536;2023-10-19T09:23:21;10.43;;;8.95;;
52033;SDS011;38045;52.988;6.536;2023-10-19T09:25:52;11.02;;;9.93;;
52033;SDS011;38045;52.988;6.536;2023-10-19T09:28:19;12.38;;;9.48;;
52033;SDS011;38045;52.988;6.536;2023-10-19T09:30:45;10.48;;;7.68;;
52033;SDS011;38045;52.988;6.536;2023-10-19T09:33:13;10.52;;;8.75;;
52033;SDS011;38045;52.988;6.536;2023-10-19T09:35:42;12.95;;;10.07;;
52033;SDS011;38045;52.988;6.536;2023-10-19T09:38:12;11.27;;;10.00;;
52033;SDS011;38045;52.988;6.536;2023-10-19T09:40:38;14.05;;;10.05;;
52033;SDS011;38045;52.988;6.536;2023-10-19T09:43:05;11.38;;;10.20;;
52033;SDS011;38045;52.988;6.536;2023-10-19T09:45:39;11.95;;;10.77;;
52033;SDS011;38045;52.988;6.536;2023-10-19T09:48:07;11.10;;;9.75;;
52033;SDS011;38045;52.988;6.536;2023-10-19T09:50:33;14.18;;;10.90;;
52033;SDS011;38045;52.988;6.536;2023-10-19T09:53:00;11.05;;;9.95;;
52033;SDS011;38045;52.988;6.536;2023-10-19T09:55:33;12.80;;;10.40;;
52033;SDS011;38045;52.988;6.536;2023-10-19T09:58:02;10.85;;;9.43;;
52033;SDS011;38045;52.988;6.536;2023-10-19T10:00:43;13.70;;;11.50;;
52033;SDS011;38045;52.988;6.536;2023-10-19T10:03:41;15.00;;;13.40;;
52033;SDS011;38045;52.988;6.536;2023-10-19T10:06:07;12.10;;;10.65;;
52033;SDS011;38045;52.988;6.536;2023-10-19T10:08:35;11.93;;;10.30;;
52033;SDS011;38045;52.988;6.536;2023-10-19T10:11:18;11.63;;;9.88;;
52033;SDS011;38045;52.988;6.536;2023-10-19T10:13:49;14.80;;;12.57;;
52033;SDS011;38045;52.988;6.536;2023-10-19T10:16:19;14.93;;;10.90;;
52033;SDS011;38045;52.988;6.536;2023-10-19T10:18:47;15.10;;;13.50;;
52033;SDS011;38045;52.988;6.536;2023-10-19T10:21:24;14.77;;;13.30;;
52033;SDS011;38045;52.988;6.536;2023-10-19T10:23:54;12.77;;;11.27;;
52033;SDS011;38045;52.988;6.536;2023-10-19T10:26:22;15.15;;;12.23;;
52033;SDS011;38045;52.988;6.536;2023-10-19T10:31:34;15.32;;;13.73;;
52033;SDS011;38045;52.988;6.536;2023-10-19T10:34:06;15.10;;;13.55;;
52033;SDS011;38045;52.988;6.536;2023-10-19T10:39:39;12.70;;;11.40;;
52033;SDS011;38045;52.988;6.536;2023-10-19T10:42:09;17.42;;;15.18;;
52033;SDS011;38045;52.988;6.536;2023-10-19T10:47:02;17.80;;;15.27;;
52033;SDS011;38045;52.988;6.536;2023-10-19T10:49:28;17.80;;;15.85;;
52033;SDS011;38045;52.988;6.536;2023-10-19T10:51:54;16.30;;;14.55;;
52033;SDS011;38045;52.988;6.536;2023-10-19T10:54:21;14.80;;;13.30;;
52033;SDS011;38045;52.988;6.536;2023-10-19T10:56:47;15.90;;;14.23;;
52033;SDS011;38045;52.988;6.536;2023-10-19T10:59:14;16.95;;;15.18;;
52033;SDS011;38045;52.988;6.536;2023-10-19T11:01:40;15.25;;;13.60;;
52033;SDS011;38045;52.988;6.536;2023-10-19T11:04:10;17.65;;;15.35;;
52033;SDS011;38045;52.988;6.536;2023-10-19T11:09:15;17.23;;;15.40;;
52033;SDS011;38045;52.988;6.536;2023-10-19T11:11:44;18.75;;;15.43;;
52033;SDS011;38045;52.988;6.536;2023-10-19T11:14:11;17.70;;;15.57;;
52033;SDS011;38045;52.988;6.536;2023-10-19T11:16:37;24.50;;;16.73;;
52033;SDS011;38045;52.988;6.536;2023-10-19T11:19:04;21.27;;;16.25;;
52033;SDS011;38045;52.988;6.536;2023-10-19T11:21:30;18.95;;;16.33;;
52033;SDS011;38045;52.988;6.536;2023-10-19T11:23:56;21.15;;;16.52;;
52033;SDS011;38045;52.988;6.536;2023-10-19T11:26:22;24.85;;;19.02;;
52033;SDS011;38045;52.988;6.536;2023-10-19T11:29:01;19.15;;;15.90;;
52033;SDS011;38045;52.988;6.536;2023-10-19T11:31:34;23.23;;;18.27;;
52033;SDS011;38045;52.988;6.536;2023-10-19T11:34:04;19.10;;;16.98;;
52033;SDS011;38045;52.988;6.536;2023-10-19T11:36:30;22.55;;;16.95;;
52033;SDS011;38045;52.988;6.536;2023-10-19T11:38:56;21.88;;;16.70;;
52033;SDS011;38045;52.988;6.536;2023-10-19T11:41:22;19.40;;;17.30;;
52033;SDS011;38045;52.988;6.536;2023-10-19T11:43:48;19.63;;;17.60;;
52033;SDS011;38045;52.988;6.536;2023-10-19T11:46:14;20.67;;;18.48;;
52033;SDS011;38045;52.988;6.536;2023-10-19T11:48:42;24.02;;;18.45;;
52033;SDS011;38045;52.988;6.536;2023-10-19T11:51:08;24.83;;;18.42;;
52033;SDS011;38045;52.988;6.536;2023-10-19T11:53:36;25.10;;;18.73;;
52033;SDS011;38045;52.988;6.536;2023-10-19T11:56:03;21.00;;;18.02;;
52033;SDS011;38045;52.988;6.536;2023-10-19T11:58:33;21.33;;;16.73;;
52033;SDS011;38045;52.988;6.536;2023-10-19T12:01:00;21.15;;;18.55;;
52033;SDS011;38045;52.988;6.536;2023-10-19T12:03:30;25.70;;;19.40;;
52033;SDS011;38045;52.988;6.536;2023-10-19T12:05:56;24.05;;;19.05;;
52033;SDS011;38045;52.988;6.536;2023-10-19T12:08:22;23.20;;;17.80;;
52033;SDS011;38045;52.988;6.536;2023-10-19T12:10:49;23.45;;;18.85;;
52033;SDS011;38045;52.988;6.536;2023-10-19T12:13:15;22.08;;;18.00;;
52033;SDS011;38045;52.988;6.536;2023-10-19T12:15:41;23.98;;;17.33;;
52033;SDS011;38045;52.988;6.536;2023-10-19T12:18:16;23.10;;;18.38;;
52033;SDS011;38045;52.988;6.536;2023-10-19T12:20:43;21.52;;;19.23;;
52033;SDS011;38045;52.988;6.536;2023-10-19T12:23:10;19.42;;;17.08;;
52033;SDS011;38045;52.988;6.536;2023-10-19T12:25:36;21.10;;;18.98;;
52033;SDS011;38045;52.988;6.536;2023-10-19T12:28:03;20.98;;;16.27;;
52033;SDS011;38045;52.988;6.536;2023-10-19T12:30:29;22.67;;;16.80;;
52033;SDS011;38045;52.988;6.536;2023-10-19T12:33:02;20.52;;;18.48;;
52033;SDS011;38045;52.988;6.536;2023-10-19T12:35:33;20.58;;;17.58;;
52033;SDS011;38045;52.988;6.536;2023-10-19T12:38:14;19.17;;;16.75;;
52033;SDS011;38045;52.988;6.536;2023-10-19T12:40:45;17.23;;;15.52;;
52033;SDS011;38045;52.988;6.536;2023-10-19T12:43:13;21.15;;;16.65;;
52033;SDS011;38045;52.988;6.536;2023-10-19T12:45:39;22.60;;;18.40;;
52033;SDS011;38045;52.988;6.536;2023-10-19T12:48:06;16.77;;;14.95;;
52033;SDS011;38045;52.988;6.536;2023-10-19T12:50:35;18.58;;;16.58;;
52033;SDS011;38045;52.988;6.536;2023-10-19T12:53:02;16.75;;;14.98;;
52033;SDS011;38045;52.988;6.536;2023-10-19T12:55:28;18.70;;;15.15;;
52033;SDS011;38045;52.988;6.536;2023-10-19T12:57:56;16.20;;;14.13;;
52033;SDS011;38045;52.988;6.536;2023-10-19T13:00:22;16.02;;;14.35;;
52033;SDS011;38045;52.988;6.536;2023-10-19T13:02:57;16.55;;;14.80;;
52033;SDS011;38045;52.988;6.536;2023-10-19T13:05:32;17.08;;;15.27;;
52033;SDS011;38045;52.988;6.536;2023-10-19T13:07:59;18.17;;;15.38;;
52033;SDS011;38045;52.988;6.536;2023-10-19T13:10:29;15.70;;;13.52;;
52033;SDS011;38045;52.988;6.536;2023-10-19T13:12:57;19.92;;;14.73;;
52033;SDS011;38045;52.988;6.536;2023-10-19T13:15:33;15.55;;;13.95;;
52033;SDS011;38045;52.988;6.536;2023-10-19T13:18:00;15.02;;;13.23;;
52033;SDS011;38045;52.988;6.536;2023-10-19T13:20:26;19.67;;;13.45;;
52033;SDS011;38045;52.988;6.536;2023-10-19T13:22:58;15.18;;;13.80;;
52033;SDS011;38045;52.988;6.536;2023-10-19T13:25:25;16.15;;;14.48;;
52033;SDS011;38045;52.988;6.536;2023-10-19T13:28:25;15.52;;;13.93;;
52033;SDS011;38045;52.988;6.536;2023-10-19T13:30:52;17.02;;;14.18;;
52033;SDS011;38045;52.988;6.536;2023-10-19T13:33:18;15.27;;;13.70;;
52033;SDS011;38045;52.988;6.536;2023-10-19T13:35:49;15.98;;;14.27;;
52033;SDS011;38045;52.988;6.536;2023-10-19T13:38:15;17.30;;;15.52;;
52033;SDS011;38045;52.988;6.536;2023-10-19T13:40:42;16.45;;;14.85;;
52033;SDS011;38045;52.988;6.536;2023-10-19T13:43:09;14.60;;;13.02;;
52033;SDS011;38045;52.988;6.536;2023-10-19T13:45:39;18.08;;;16.00;;
52033;SDS011;38045;52.988;6.536;2023-10-19T13:48:06;19.88;;;15.70;;
52033;SDS011;38045;52.988;6.536;2023-10-19T13:50:33;23.05;;;15.55;;
52033;SDS011;38045;52.988;6.536;2023-10-19T13:53:00;21.98;;;15.40;;
52033;SDS011;38045;52.988;6.536;2023-10-19T13:55:27;16.35;;;14.82;;
52033;SDS011;38045;52.988;6.536;2023-10-19T13:57:55;18.88;;;15.05;;
52033;SDS011;38045;52.988;6.536;2023-10-19T14:00:22;18.20;;;14.98;;
52033;SDS011;38045;52.988;6.536;2023-10-19T14:02:52;22.38;;;16.00;;
52033;SDS011;38045;52.988;6.536;2023-10-19T14:05:19;19.17;;;14.18;;
52033;SDS011;38045;52.988;6.536;2023-10-19T14:07:48;14.63;;;13.00;;
52033;SDS011;38045;52.988;6.536;2023-10-19T14:10:13;14.70;;;13.18;;
52033;SDS011;38045;52.988;6.536;2023-10-19T14:12:39;16.52;;;14.93;;
52033;SDS011;38045;52.988;6.536;2023-10-19T14:15:11;14.57;;;13.13;;
52033;SDS011;38045;52.988;6.536;2023-10-19T14:17:40;14.15;;;12.68;;
52033;SDS011;38045;52.988;6.536;2023-10-19T14:20:06;13.63;;;12.20;;
52033;SDS011;38045;52.988;6.536;2023-10-19T14:22:37;13.57;;;12.35;;
52033;SDS011;38045;52.988;6.536;2023-10-19T14:25:14;16.85;;;12.40;;
52033;SDS011;38045;52.988;6.536;2023-10-19T14:27:44;14.02;;;12.60;;
52033;SDS011;38045;52.988;6.536;2023-10-19T14:30:12;13.85;;;10.75;;
52033;SDS011;38045;52.988;6.536;2023-10-19T14:32:43;13.82;;;12.50;;
52033;SDS011;38045;52.988;6.536;2023-10-19T14:35:12;12.10;;;9.93;;
52033;SDS011;38045;52.988;6.536;2023-10-19T14:37:40;13.52;;;11.88;;
52033;SDS011;38045;52.988;6.536;2023-10-19T14:40:13;14.07;;;11.10;;
52033;SDS011;38045;52.988;6.536;2023-10-19T14:42:50;13.90;;;12.45;;
52033;SDS011;38045;52.988;6.536;2023-10-19T14:45:19;11.98;;;10.88;;
52033;SDS011;38045;52.988;6.536;2023-10-19T14:47:46;13.27;;;11.68;;
52033;SDS011;38045;52.988;6.536;2023-10-19T14:50:13;11.05;;;9.77;;
52033;SDS011;38045;52.988;6.536;2023-10-19T14:52:43;12.32;;;10.63;;
52033;SDS011;38045;52.988;6.536;2023-10-19T14:55:12;13.30;;;10.80;;
52033;SDS011;38045;52.988;6.536;2023-10-19T14:57:40;12.40;;;11.20;;
52033;SDS011;38045;52.988;6.536;2023-10-19T15:00:18;23.80;;;11.75;;